Kents Hill, Maine
Current Conditions -  °F | °C
As of 8:53 AM on Thursday 18 Dec 2014 (Local Time) from KAUG Reporting Station
Light Snow Light Snow  
Wind Chill: 27°   Ceiling: 700
Heat Index: 33°   Visibility: 7mi
Dew Point: 32°   Wind: 7mph
Humidity: 96%   Direction: 310°NW
Pressure: 29.65"   Gusts: NA
Location:  44.4°N, 70°W
Report Text: KAUG 181353Z AUTO 31006KT 7SM -SN BKN007 OVC010 01/00 A2965 RMK AO2 SLP043 P0002 T00060000
Loading
Personal Weather Stations






























Interactive Weather Map New forecast layout! Learn more

10-Day Weather Forecast

Advertisements
Track Severe Weather on mobile